Time;durP1;ratioP1;P1;durP2;ratioP2;P2;SDS_P1;SDS_P2;PMS_P1;PMS_P2;Temp;Humidity;BMP_temperature;BMP_pressure;BME280_temperature;BME280_humidity;BME280_pressure;Samples;Min_cycle;Max_cycle;Signal;HPM_P1;HPM_P2
2022/01/24 00:01:27;;;;;;;21.97;14.20;;;0.40;98.40;;;;;;5043272;28;20224;-80
2022/01/24 00:03:56;;;;;;;22.30;14.80;;;0.40;98.30;;;;;;5045028;28;20205;-79
2022/01/24 00:06:25;;;;;;;19.90;13.37;;;0.40;98.20;;;;;;5044389;28;20260;-81
2022/01/24 00:08:52;;;;;;;20.77;13.57;;;0.40;98.20;;;;;;5030016;28;20231;-81
2022/01/24 00:11:23;;;;;;;20.93;13.07;;;0.30;98.10;;;;;;5046623;28;20229;-80
2022/01/24 00:16:58;;;;;;;21.00;13.07;;;0.20;98.60;;;;;;5039212;28;20680;-81
2022/01/24 00:27:39;;;;;;;21.73;13.37;;;0.00;99.20;;;;;;5027423;28;20233;-80
2022/01/24 00:30:07;;;;;;;20.17;13.17;;;0.10;99.20;;;;;;5036305;28;20649;-79
2022/01/24 00:32:34;;;;;;;18.30;12.30;;;0.20;99.20;;;;;;5054608;28;20602;-79
2022/01/24 00:35:01;;;;;;;19.13;12.07;;;0.30;98.80;;;;;;5052515;28;20201;-78
2022/01/24 00:37:32;;;;;;;19.90;12.17;;;0.40;98.50;;;;;;5037594;28;20629;-79
2022/01/24 00:40:01;;;;;;;16.93;11.50;;;0.40;98.20;;;;;;5045865;28;20660;-82
2022/01/24 00:42:35;;;;;;;17.53;11.97;;;0.40;98.00;;;;;;5045454;28;20213;-81
2022/01/24 00:45:10;;;;;;;16.83;11.67;;;0.40;97.70;;;;;;5049211;28;20553;-81
2022/01/24 00:48:02;;;;;;;14.70;10.67;;;0.30;97.90;;;;;;5041728;28;20217;-81
2022/01/24 00:53:30;;;;;;;17.73;11.40;;;0.20;98.30;;;;;;5049208;28;20715;-85
2022/01/24 00:55:58;;;;;;;16.77;11.13;;;0.20;98.30;;;;;;5032579;28;20230;-81
2022/01/24 00:58:25;;;;;;;16.63;11.30;;;0.20;98.40;;;;;;5046183;28;20853;-82
2022/01/24 01:00:57;;;;;;;17.60;11.53;;;0.30;98.50;;;;;;5046946;28;20230;-81
2022/01/24 01:03:24;;;;;;;16.00;10.60;;;0.50;98.20;;;;;;5048244;28;20567;-81
2022/01/24 01:19:38;;;;;;;15.37;10.27;;;0.60;97.00;;;;;;5051053;28;20193;-80
2022/01/24 01:22:05;;;;;;;15.97;10.33;;;0.50;97.20;;;;;;5043443;28;20222;-80
2022/01/24 01:24:38;;;;;;;14.63;9.80;;;0.50;97.00;;;;;;5040044;28;20293;-81
2022/01/24 01:27:10;;;;;;;14.43;9.43;;;0.40;97.00;;;;;;5033948;28;20660;-80
2022/01/24 01:29:48;;;;;;;14.60;10.43;;;0.40;97.00;;;;;;5040756;28;20285;-83
2022/01/24 01:32:23;;;;;;;13.97;9.50;;;0.40;96.80;;;;;;5050036;28;20707;-79
2022/01/24 01:35:08;;;;;;;15.60;10.23;;;0.20;97.20;;;;;;5048224;28;20188;-79
2022/01/24 01:38:03;;;;;;;13.40;9.57;;;0.30;97.40;;;;;;5041807;28;20225;-79
2022/01/24 01:54:49;;;;;;;14.70;10.37;;;-0.10;97.20;;;;;;5012479;28;20213;-80
2022/01/24 01:57:19;;;;;;;16.80;10.23;;;-0.10;97.60;;;;;;5045515;28;20319;-79
2022/01/24 01:59:46;;;;;;;15.47;10.43;;;-0.10;97.60;;;;;;5042129;28;20207;-80
2022/01/24 02:02:13;;;;;;;16.00;10.93;;;-0.10;97.50;;;;;;5044523;28;20228;-80
2022/01/24 02:04:41;;;;;;;18.77;11.77;;;-0.20;97.50;;;;;;5051311;28;20194;-80
2022/01/24 02:07:11;;;;;;;15.80;10.60;;;-0.30;97.70;;;;;;5032879;28;20258;-81
2022/01/24 02:09:41;;;;;;;16.77;11.10;;;-0.40;97.90;;;;;;5039392;28;20191;-79
2022/01/24 02:12:09;;;;;;;14.93;10.90;;;-0.50;98.10;;;;;;5042001;28;20315;-80
2022/01/24 02:14:44;;;;;;;17.17;11.43;;;-0.50;98.50;;;;;;5037710;28;20826;-80
2022/01/24 02:17:16;;;;;;;15.77;10.60;;;-0.40;98.60;;;;;;5037054;28;20714;-83
2022/01/24 02:20:06;;;;;;;15.33;10.83;;;-0.40;98.60;;;;;;5042206;28;20211;-79
2022/01/24 02:22:49;;;;;;;16.57;10.73;;;-0.30;98.40;;;;;;5050463;28;20225;-80
2022/01/24 02:25:26;;;;;;;17.30;11.17;;;-0.30;98.20;;;;;;5041073;28;20675;-80
2022/01/24 02:27:59;;;;;;;16.13;10.63;;;-0.20;98.10;;;;;;5032624;28;20216;-81
2022/01/24 02:30:43;;;;;;;18.73;11.07;;;-0.20;97.70;;;;;;5029714;28;20200;-80
2022/01/24 02:33:11;;;;;;;18.97;11.47;;;-0.20;97.70;;;;;;5025028;28;20198;-80
2022/01/24 02:35:38;;;;;;;16.10;10.80;;;-0.30;98.10;;;;;;5027368;28;20206;-80
2022/01/24 02:38:15;;;;;;;15.97;10.93;;;-0.30;98.00;;;;;;5043937;28;20201;-80
2022/01/24 02:40:42;;;;;;;15.70;10.97;;;-0.20;98.00;;;;;;5050321;28;21353;-80
2022/01/24 02:48:23;;;;;;;15.87;10.53;;;-0.20;97.90;;;;;;5046541;28;20238;-80
2022/01/24 02:48:53;;;;;;;16.53;10.67;;;-0.20;97.80;;;;;;5052312;28;20233;-81
2022/01/24 02:51:42;;;;;;;18.70;11.30;;;-0.20;97.90;;;;;;5040944;28;20739;-83
2022/01/24 02:54:19;;;;;;;16.23;10.67;;;-0.20;97.90;;;;;;5046166;28;20206;-79
2022/01/24 02:56:46;;;;;;;14.57;10.30;;;-0.10;97.60;;;;;;5051368;28;20292;-81
2022/01/24 02:59:12;;;;;;;16.63;11.23;;;-0.20;97.50;;;;;;5053917;28;20196;-79
2022/01/24 03:01:41;;;;;;;16.50;10.37;;;-0.30;97.60;;;;;;5045668;28;20234;-79
2022/01/24 03:04:08;;;;;;;15.83;10.57;;;-0.30;97.70;;;;;;5050573;28;20691;-80
2022/01/24 03:06:35;;;;;;;16.83;11.33;;;-0.20;97.60;;;;;;5048128;28;20309;-82
2022/01/24 03:09:02;;;;;;;15.87;10.40;;;-0.20;97.40;;;;;;5049489;28;20248;-82
2022/01/24 03:11:52;;;;;;;14.97;10.80;;;-0.30;97.30;;;;;;5051372;28;20225;-81
2022/01/24 03:14:19;;;;;;;16.20;10.87;;;-0.50;97.50;;;;;;5049812;28;20198;-80
2022/01/24 03:16:46;;;;;;;15.83;10.83;;;-0.50;97.90;;;;;;5044262;28;20228;-80
2022/01/24 03:19:14;;;;;;;16.13;10.80;;;-0.60;98.30;;;;;;5039870;28;20671;-80
2022/01/24 03:21:42;;;;;;;17.27;11.00;;;-0.60;98.60;;;;;;5041518;28;20584;-82
2022/01/24 03:24:09;;;;;;;15.77;11.10;;;-0.60;98.50;;;;;;5046676;28;20198;-81
2022/01/24 03:26:37;;;;;;;16.03;10.97;;;-0.50;98.60;;;;;;5045570;28;20234;-80
2022/01/24 03:29:04;;;;;;;17.67;11.13;;;-0.60;98.50;;;;;;5042215;28;20319;-81
2022/01/24 03:31:31;;;;;;;16.63;10.20;;;-0.50;98.50;;;;;;5050858;28;20754;-80
2022/01/24 03:33:58;;;;;;;18.63;11.13;;;-0.50;98.40;;;;;;5046936;28;20205;-80
2022/01/24 03:36:25;;;;;;;17.27;11.13;;;-0.60;98.20;;;;;;5048057;28;20231;-86
2022/01/24 03:38:52;;;;;;;17.37;11.83;;;-0.50;98.50;;;;;;5044838;28;20208;-80
2022/01/24 03:41:19;;;;;;;17.13;11.13;;;-0.50;98.10;;;;;;5053647;28;20224;-80
2022/01/24 03:43:47;;;;;;;17.10;10.77;;;-0.40;97.80;;;;;;5052390;28;20194;-81
2022/01/24 03:46:26;;;;;;;17.90;11.20;;;-0.40;97.40;;;;;;5041756;28;20230;-80
2022/01/24 03:48:56;;;;;;;16.47;10.90;;;-0.40;97.30;;;;;;5045143;28;20356;-80
2022/01/24 03:51:24;;;;;;;17.27;10.70;;;-0.50;97.40;;;;;;5048182;28;20227;-81
2022/01/24 03:53:52;;;;;;;17.57;11.27;;;-0.50;97.50;;;;;;5048745;28;20209;-80
2022/01/24 03:56:19;;;;;;;16.67;10.80;;;-0.60;97.50;;;;;;5040910;28;20232;-82
2022/01/24 03:58:47;;;;;;;16.57;10.37;;;-0.60;98.10;;;;;;5045729;28;20200;-80
2022/01/24 04:01:14;;;;;;;18.33;11.37;;;-0.70;97.70;;;;;;5047893;28;20460;-80
2022/01/24 04:03:42;;;;;;;17.63;11.43;;;-0.80;97.80;;;;;;5051066;28;20222;-80
2022/01/24 04:06:10;;;;;;;16.57;10.70;;;-0.90;97.90;;;;;;5053066;28;20239;-84
2022/01/24 04:08:37;;;;;;;16.00;11.03;;;-0.90;98.20;;;;;;5051331;28;20237;-82
2022/01/24 04:11:10;;;;;;;16.43;10.97;;;-0.90;98.50;;;;;;5052430;28;20699;-80
2022/01/24 04:13:40;;;;;;;16.53;10.93;;;-0.80;98.20;;;;;;5048707;28;20203;-80
2022/01/24 04:16:27;;;;;;;17.63;10.87;;;-0.70;98.00;;;;;;5048956;28;20251;-80
2022/01/24 04:19:01;;;;;;;16.97;10.90;;;-0.70;97.60;;;;;;5045387;28;20202;-81
2022/01/24 04:21:29;;;;;;;14.73;10.20;;;-0.70;97.50;;;;;;5044515;28;20239;-81
2022/01/24 04:24:03;;;;;;;16.57;10.93;;;-0.80;97.60;;;;;;5052531;28;20200;-80
2022/01/24 04:26:30;;;;;;;18.30;11.07;;;-0.80;97.70;;;;;;5044886;28;20262;-81
2022/01/24 04:28:58;;;;;;;15.87;9.93;;;-0.80;97.60;;;;;;5050887;28;20218;-83
2022/01/24 04:31:27;;;;;;;18.13;11.27;;;-0.70;97.40;;;;;;5052058;28;20226;-83
2022/01/24 04:33:55;;;;;;;18.00;11.17;;;-0.80;97.40;;;;;;5035295;28;20210;-81
2022/01/24 04:36:23;;;;;;;18.87;11.23;;;-0.90;97.70;;;;;;5042699;28;20610;-83
2022/01/24 04:38:50;;;;;;;17.23;10.97;;;-0.90;97.90;;;;;;5050341;28;20717;-84
2022/01/24 04:41:20;;;;;;;19.07;12.20;;;-0.90;97.80;;;;;;5045524;28;20306;-82
2022/01/24 04:43:55;;;;;;;22.40;13.10;;;-0.90;97.80;;;;;;5042240;28;20205;-81
2022/01/24 04:52:12;;;;;;;18.57;11.70;;;-0.90;97.80;;;;;;5048859;28;20228;-81
2022/01/24 04:54:42;;;;;;;19.67;12.23;;;-0.90;97.70;;;;;;5043037;28;20213;-82
2022/01/24 04:57:10;;;;;;;18.03;11.67;;;-0.90;97.40;;;;;;5049393;28;20614;-81
2022/01/24 04:59:38;;;;;;;21.20;12.00;;;-1.00;97.70;;;;;;5049460;28;20581;-81
2022/01/24 05:02:05;;;;;;;17.20;11.23;;;-1.00;97.70;;;;;;5035657;28;20225;-81
2022/01/24 05:04:33;;;;;;;19.13;11.90;;;-0.90;97.70;;;;;;5047922;28;20646;-81
2022/01/24 05:07:01;;;;;;;17.67;11.10;;;-0.90;97.40;;;;;;5040219;28;20235;-81
2022/01/24 05:09:33;;;;;;;20.33;12.17;;;-0.90;97.30;;;;;;5052278;28;20583;-87
2022/01/24 05:12:05;;;;;;;19.53;11.13;;;-0.90;97.20;;;;;;5046748;28;20226;-81
2022/01/24 05:25:31;;;;;;;15.43;10.33;;;-0.90;97.20;;;;;;5048080;28;20208;-81
2022/01/24 05:27:58;;;;;;;17.70;10.57;;;-0.90;96.90;;;;;;5044686;28;20194;-83
2022/01/24 05:30:25;;;;;;;17.97;11.37;;;-1.00;96.70;;;;;;5042135;28;20194;-81
2022/01/24 05:32:52;;;;;;;16.97;10.80;;;-1.10;97.10;;;;;;5047310;28;20208;-85
2022/01/24 05:35:20;;;;;;;17.47;10.30;;;-1.10;97.20;;;;;;5050712;28;20231;-81
2022/01/24 05:37:47;;;;;;;19.67;11.40;;;-1.10;97.10;;;;;;5048660;28;20232;-80
2022/01/24 05:40:14;;;;;;;17.07;10.87;;;-1.20;97.10;;;;;;5053206;28;20661;-82
2022/01/24 05:42:41;;;;;;;20.20;11.87;;;-1.30;97.50;;;;;;5049905;28;20584;-80
2022/01/24 05:45:09;;;;;;;20.00;12.57;;;-1.30;97.90;;;;;;5047313;28;20206;-86
2022/01/24 05:47:36;;;;;;;22.67;13.50;;;-1.00;99.40;;;;;;5048961;28;20241;-80
2022/01/24 05:50:04;;;;;;;21.67;13.17;;;-0.60;99.90;;;;;;5047014;28;20219;-83
2022/01/24 05:52:33;;;;;;;21.90;13.43;;;-0.30;99.90;;;;;;5044159;28;20872;-80
2022/01/24 05:55:00;;;;;;;21.83;13.17;;;-0.10;99.70;;;;;;5049225;28;20256;-80
2022/01/24 05:57:26;;;;;;;20.60;12.73;;;0.10;99.60;;;;;;5047085;28;20898;-80
2022/01/24 05:59:53;;;;;;;18.83;11.97;;;0.20;99.10;;;;;;5038494;28;20918;-80
2022/01/24 06:02:20;;;;;;;21.53;12.90;;;0.00;97.60;;;;;;5037226;28;20237;-82
2022/01/24 06:04:47;;;;;;;18.23;11.67;;;0.10;98.40;;;;;;5050237;28;20199;-81
2022/01/24 06:07:14;;;;;;;17.30;11.57;;;0.10;97.20;;;;;;5037491;28;20645;-80
2022/01/24 06:09:48;;;;;;;18.17;12.23;;;-0.30;95.80;;;;;;5045792;28;20245;-80
2022/01/24 06:12:16;;;;;;;22.77;13.43;;;-0.60;96.10;;;;;;5048649;28;20218;-82
2022/01/24 06:14:43;;;;;;;21.30;13.10;;;-0.60;98.10;;;;;;5050398;28;20208;-80
2022/01/24 06:17:10;;;;;;;18.60;12.00;;;-0.40;99.00;;;;;;5051081;28;20216;-82
2022/01/24 06:19:37;;;;;;;19.37;12.17;;;-0.60;97.90;;;;;;5046424;28;20194;-80
2022/01/24 06:22:05;;;;;;;20.67;12.47;;;-0.60;97.60;;;;;;5047458;28;20228;-80
2022/01/24 06:24:32;;;;;;;18.70;12.03;;;-0.60;99.10;;;;;;5057989;28;20209;-82
2022/01/24 06:27:00;;;;;;;19.23;11.70;;;-0.30;99.10;;;;;;5047046;28;20227;-82
2022/01/24 06:29:27;;;;;;;17.90;11.40;;;-0.30;97.80;;;;;;5050337;28;20228;-85
2022/01/24 06:31:54;;;;;;;17.73;11.27;;;-0.50;96.90;;;;;;5049532;28;20230;-82
2022/01/24 06:34:21;;;;;;;19.37;11.90;;;-0.70;96.90;;;;;;5052327;28;20616;-85
2022/01/24 06:36:48;;;;;;;17.67;11.47;;;-0.70;98.00;;;;;;5054859;28;20260;-82
2022/01/24 06:39:17;;;;;;;19.50;11.67;;;-0.90;97.60;;;;;;5053638;28;20210;-85
2022/01/24 06:41:52;;;;;;;18.60;11.50;;;-1.00;97.90;;;;;;5051932;28;20230;-83
2022/01/24 06:44:20;;;;;;;19.80;11.97;;;-0.90;98.10;;;;;;5040652;28;20225;-84
2022/01/24 06:46:48;;;;;;;20.73;12.00;;;-1.10;97.60;;;;;;5051159;28;20236;-81
2022/01/24 06:49:22;;;;;;;21.20;11.67;;;-1.10;98.30;;;;;;5048966;28;20862;-84
2022/01/24 06:51:52;;;;;;;19.63;12.43;;;-0.90;98.70;;;;;;5049697;28;20267;-82
2022/01/24 06:54:19;;;;;;;18.23;12.17;;;-0.80;98.40;;;;;;5045990;28;20576;-81
2022/01/24 06:56:46;;;;;;;20.90;12.03;;;-0.70;98.60;;;;;;5040465;28;20692;-81
2022/01/24 06:59:14;;;;;;;20.53;12.67;;;-0.80;97.90;;;;;;5042843;28;20273;-82
2022/01/24 07:01:44;;;;;;;20.57;12.73;;;-0.90;97.70;;;;;;5045089;28;20228;-81
2022/01/24 07:04:13;;;;;;;19.33;13.23;;;-0.90;97.90;;;;;;5042796;28;20201;-89
2022/01/24 07:06:41;;;;;;;19.90;12.27;;;-0.60;99.10;;;;;;5048503;28;20222;-85
2022/01/24 07:09:10;;;;;;;19.93;11.97;;;-0.50;98.60;;;;;;5039800;28;20242;-82
2022/01/24 07:11:38;;;;;;;18.50;12.37;;;-0.60;97.90;;;;;;5037454;28;20282;-79
2022/01/24 07:14:11;;;;;;;21.80;12.40;;;-0.30;98.70;;;;;;5048216;28;20204;-80
2022/01/24 07:17:01;;;;;;;19.37;11.90;;;0.00;98.60;;;;;;5050912;28;20298;-81
2022/01/24 07:19:29;;;;;;;19.50;12.63;;;0.20;97.30;;;;;;5043002;28;20202;-83
2022/01/24 07:21:57;;;;;;;24.33;13.00;;;0.60;97.40;;;;;;5052776;28;20235;-82
2022/01/24 07:24:24;;;;;;;17.40;12.20;;;0.70;95.70;;;;;;5040917;28;20823;-85
2022/01/24 07:26:52;;;;;;;20.40;12.43;;;0.50;94.80;;;;;;5045019;28;20225;-83
2022/01/24 07:29:26;;;;;;;19.80;12.60;;;0.80;97.00;;;;;;5043385;28;20612;-82
2022/01/24 07:31:53;;;;;;;20.47;12.83;;;0.80;95.60;;;;;;5049585;28;20355;-83
2022/01/24 07:34:27;;;;;;;22.87;13.50;;;0.80;95.30;;;;;;5047594;28;20612;-86
2022/01/24 07:36:55;;;;;;;20.07;12.93;;;0.90;95.70;;;;;;5045449;28;20344;-82
2022/01/24 07:39:24;;;;;;;20.73;13.30;;;1.00;95.70;;;;;;5047846;28;20209;-84
2022/01/24 07:42:03;;;;;;;18.57;12.20;;;0.90;94.60;;;;;;5053456;28;20573;-88
2022/01/24 07:44:30;;;;;;;20.23;12.47;;;1.00;95.00;;;;;;5047798;28;20220;-83
2022/01/24 07:46:57;;;;;;;19.27;12.37;;;1.00;95.20;;;;;;5052051;28;20232;-82
2022/01/24 07:49:31;;;;;;;19.23;12.40;;;1.00;95.00;;;;;;5055389;28;20590;-84
2022/01/24 07:51:58;;;;;;;18.23;11.83;;;0.80;94.20;;;;;;5054451;28;20576;-87
2022/01/24 07:54:25;;;;;;;18.87;12.50;;;0.80;95.00;;;;;;5061541;28;20210;-81
2022/01/24 07:56:53;;;;;;;21.67;12.47;;;1.00;95.90;;;;;;5059813;28;20225;-85
2022/01/24 07:59:20;;;;;;;18.87;11.97;;;1.20;96.10;;;;;;5057604;28;20197;-83
2022/01/24 08:01:48;;;;;;;20.03;12.67;;;1.30;95.90;;;;;;5049023;28;20280;-83
2022/01/24 08:04:15;;;;;;;18.47;12.03;;;1.40;94.80;;;;;;5058188;28;20204;-83
2022/01/24 08:06:46;;;;;;;18.47;12.27;;;1.60;95.80;;;;;;5056607;28;20236;-85
2022/01/24 08:09:13;;;;;;;19.13;12.63;;;1.80;95.00;;;;;;5048707;28;20209;-86
2022/01/24 08:11:40;;;;;;;18.50;11.67;;;1.90;95.60;;;;;;5055051;28;20224;-83
2022/01/24 08:14:08;;;;;;;18.47;12.17;;;2.10;94.50;;;;;;5054399;28;20186;-84
2022/01/24 08:16:39;;;;;;;18.70;11.73;;;2.30;94.40;;;;;;5058870;28;20225;-82
2022/01/24 08:19:06;;;;;;;17.90;11.63;;;2.20;94.00;;;;;;5054870;28;20198;-83
2022/01/24 08:21:35;;;;;;;19.03;12.13;;;2.20;93.50;;;;;;5055419;28;20303;-87
2022/01/24 08:24:06;;;;;;;18.50;12.20;;;2.30;94.10;;;;;;5049256;28;20198;-83
2022/01/24 08:26:36;;;;;;;18.10;12.20;;;2.10;93.10;;;;;;5047647;28;20214;-85
2022/01/24 08:29:13;;;;;;;18.43;12.73;;;2.10;93.50;;;;;;5036763;28;20190;-85
2022/01/24 08:31:40;;;;;;;19.93;13.90;;;2.00;93.50;;;;;;5050255;28;20242;-86
2022/01/24 08:34:07;;;;;;;26.60;16.53;;;1.80;93.70;;;;;;5046970;28;20199;-83
2022/01/24 08:36:35;;;;;;;32.70;19.10;;;1.70;94.40;;;;;;5053870;28;20236;-83
2022/01/24 08:39:07;;;;;;;32.90;18.70;;;1.80;94.40;;;;;;5057646;28;20212;-84
2022/01/24 08:41:44;;;;;;;28.67;13.97;;;1.80;94.40;;;;;;5042496;28;20225;-82
2022/01/24 08:44:19;;;;;;;21.13;13.40;;;1.80;94.40;;;;;;5052327;28;20194;-83
2022/01/24 08:46:51;;;;;;;22.93;13.17;;;1.80;94.40;;;;;;5041849;28;20236;-80
2022/01/24 08:49:18;;;;;;;21.23;12.73;;;1.50;95.20;;;;;;5059097;28;20891;-85
2022/01/24 08:51:46;;;;;;;21.27;12.33;;;1.60;96.40;;;;;;5050495;28;20250;-85
2022/01/24 08:54:25;;;;;;;23.53;13.33;;;1.90;95.20;;;;;;5047346;28;20203;-82
2022/01/24 08:56:52;;;;;;;35.70;14.23;;;2.00;94.40;;;;;;5040667;28;20214;-82
2022/01/24 08:59:21;;;;;;;23.47;13.90;;;1.60;94.80;;;;;;5043452;28;20650;-81
2022/01/24 09:01:48;;;;;;;23.97;14.17;;;1.60;96.60;;;;;;5060023;28;20226;-82
2022/01/24 09:04:15;;;;;;;23.83;13.33;;;1.90;96.00;;;;;;5056307;28;20202;-85
2022/01/24 09:06:44;;;;;;;25.37;13.93;;;1.80;95.10;;;;;;5055495;28;20243;-88
2022/01/24 09:09:13;;;;;;;25.93;13.70;;;1.90;94.70;;;;;;5065783;28;20284;-82
2022/01/24 09:11:41;;;;;;;26.07;13.83;;;1.80;95.40;;;;;;5054774;28;20711;-83
2022/01/24 09:14:09;;;;;;;24.10;13.47;;;1.90;94.70;;;;;;5055790;28;20208;-83
2022/01/24 09:16:38;;;;;;;24.27;14.00;;;1.80;95.20;;;;;;5043707;28;20218;-81
2022/01/24 09:19:06;;;;;;;24.17;13.97;;;2.00;95.20;;;;;;5055453;28;20273;-84
2022/01/24 09:21:44;;;;;;;24.63;13.53;;;2.30;95.50;;;;;;5045016;28;20228;-84
2022/01/24 09:24:11;;;;;;;30.50;13.23;;;2.40;95.30;;;;;;5057460;28;20197;-86
2022/01/24 09:26:38;;;;;;;26.53;14.87;;;2.20;94.30;;;;;;5036172;28;20708;-86
2022/01/24 09:29:06;;;;;;;23.10;13.50;;;2.30;94.80;;;;;;5055976;28;20202;-83
2022/01/24 09:31:34;;;;;;;32.73;14.57;;;2.40;95.40;;;;;;5055398;28;20230;-84
2022/01/24 09:34:01;;;;;;;24.40;14.27;;;2.20;94.50;;;;;;5056923;28;20216;-83
2022/01/24 09:36:28;;;;;;;21.87;13.47;;;2.40;94.50;;;;;;5047955;28;20232;-84
2022/01/24 09:38:56;;;;;;;19.97;12.93;;;2.50;94.50;;;;;;5056652;28;20197;-84
2022/01/24 09:41:23;;;;;;;19.90;12.90;;;2.60;93.70;;;;;;5055758;28;20275;-83
2022/01/24 09:43:50;;;;;;;20.37;12.93;;;2.50;94.50;;;;;;5061212;28;20208;-84
2022/01/24 09:46:19;;;;;;;20.27;12.03;;;2.50;94.50;;;;;;5058610;28;20255;-83
2022/01/24 09:48:47;;;;;;;19.87;12.63;;;2.60;94.70;;;;;;5057676;28;20224;-84
2022/01/24 09:51:13;;;;;;;19.77;13.17;;;2.20;94.10;;;;;;5055449;28;20231;-82
2022/01/24 09:53:40;;;;;;;20.33;12.80;;;2.20;94.50;;;;;;5047969;28;20910;-83
2022/01/24 09:56:08;;;;;;;24.17;13.80;;;2.10;95.20;;;;;;5046060;28;20261;-82
2022/01/24 09:58:37;;;;;;;21.90;13.37;;;2.40;94.50;;;;;;5054415;28;20194;-81
2022/01/24 10:01:07;;;;;;;21.60;13.30;;;2.60;94.60;;;;;;5036845;28;20217;-81
2022/01/24 10:03:35;;;;;;;19.00;11.80;;;2.90;93.50;;;;;;5041156;28;20197;-81
2022/01/24 10:06:02;;;;;;;18.47;12.07;;;3.20;94.20;;;;;;5045599;28;20699;-79
2022/01/24 10:08:29;;;;;;;16.27;11.17;;;3.20;92.80;;;;;;5044238;28;20323;-82
2022/01/24 10:10:58;;;;;;;20.13;11.90;;;3.40;92.10;;;;;;5051514;28;20232;-80
2022/01/24 10:16:26;;;;;;;18.57;12.43;;;3.10;92.70;;;;;;5044249;28;20245;-86
2022/01/24 10:19:02;;;;;;;18.67;12.60;;;3.00;92.80;;;;;;5036188;28;20203;-85
2022/01/24 10:21:40;;;;;;;18.50;12.13;;;3.10;92.40;;;;;;5038286;28;20313;-89
2022/01/24 10:24:07;;;;;;;19.53;12.73;;;3.10;93.10;;;;;;5048776;28;20190;-84
2022/01/24 10:26:34;;;;;;;18.77;12.33;;;3.30;93.00;;;;;;5048388;28;20288;-85
2022/01/24 10:32:46;;;;;;;24.67;14.30;;;3.80;91.70;;;;;;5057167;28;20305;-85
2022/01/24 10:39:33;;;;;;;23.20;13.97;;;4.40;90.90;;;;;;5057033;28;20158;-85
2022/01/24 10:42:52;;;;;;;22.63;13.50;;;4.30;90.70;;;;;;5055911;28;20214;-87
2022/01/24 10:45:23;;;;;;;23.57;13.53;;;3.90;91.30;;;;;;5053627;28;20627;-84
2022/01/24 10:47:54;;;;;;;22.87;13.83;;;3.70;91.40;;;;;;5048177;28;20592;-82
2022/01/24 10:50:24;;;;;;;21.67;13.93;;;3.70;91.90;;;;;;5051891;28;20276;-82
2022/01/24 10:52:52;;;;;;;22.37;12.73;;;3.70;92.10;;;;;;5052229;28;20221;-82
2022/01/24 10:55:21;;;;;;;21.60;12.97;;;3.60;92.10;;;;;;5047595;28;20202;-80
2022/01/24 10:57:51;;;;;;;20.87;13.27;;;3.40;92.50;;;;;;5035759;28;20228;-84
2022/01/24 11:00:23;;;;;;;22.70;13.77;;;3.40;92.70;;;;;;5046131;28;20855;-86
2022/01/24 11:02:51;;;;;;;21.13;13.03;;;3.60;92.20;;;;;;5037280;28;20233;-83
2022/01/24 11:05:34;;;;;;;21.63;13.07;;;4.00;91.90;;;;;;5044222;28;20271;-84
2022/01/24 11:08:03;;;;;;;20.87;12.23;;;4.30;91.40;;;;;;5046358;28;20241;-85
2022/01/24 11:10:31;;;;;;;23.13;13.43;;;4.40;90.60;;;;;;5051754;28;20228;-85
2022/01/24 11:13:04;;;;;;;19.00;12.63;;;4.40;91.00;;;;;;5049373;28;20202;-85
2022/01/24 11:15:31;;;;;;;18.03;12.77;;;4.70;90.20;;;;;;5040908;28;20595;-85
2022/01/24 11:17:59;;;;;;;18.93;13.13;;;4.70;90.10;;;;;;5049426;28;20221;-84
2022/01/24 11:20:30;;;;;;;18.52;13.32;;;4.70;88.80;;;;;;5052497;28;20201;-86
2022/01/24 11:23:01;;;;;;;18.30;12.55;;;4.70;90.40;;;;;;5044935;28;20309;-84
2022/01/24 11:25:29;;;;;;;17.23;11.85;;;4.50;90.40;;;;;;5041441;28;20233;-87
2022/01/24 11:27:57;;;;;;;17.63;12.98;;;4.80;88.90;;;;;;5050159;28;20543;-89
2022/01/24 11:30:29;;;;;;;16.20;11.63;;;5.00;89.00;;;;;;5043930;28;20214;-86
2022/01/24 11:33:01;;;;;;;15.57;11.97;;;5.00;89.00;;;;;;5041894;28;20686;-89
2022/01/24 11:35:35;;;;;;;16.47;12.10;;;5.10;86.50;;;;;;5049816;28;20213;-88
2022/01/24 11:38:03;;;;;;;19.33;12.57;;;4.90;88.20;;;;;;5050196;28;20199;-86
2022/01/24 11:40:48;;;;;;;17.53;12.67;;;4.70;88.80;;;;;;5047200;28;20220;-89
2022/01/24 11:43:26;;;;;;;17.37;12.70;;;4.50;90.20;;;;;;5046432;28;20293;-86
2022/01/24 11:46:03;;;;;;;17.00;12.37;;;4.40;90.20;;;;;;5048771;28;20582;-81
2022/01/24 11:48:33;;;;;;;17.20;12.03;;;4.20;91.40;;;;;;5038593;28;20226;-83
2022/01/24 11:51:05;;;;;;;18.40;12.80;;;4.00;91.90;;;;;;5041812;28;20626;-83
2022/01/24 11:53:34;;;;;;;17.83;12.70;;;4.10;92.50;;;;;;5039049;28;20230;-85
2022/01/24 11:56:25;;;;;;;19.13;13.73;;;4.30;91.90;;;;;;5035311;28;20288;-85
2022/01/24 11:59:19;;;;;;;20.43;13.40;;;4.30;91.60;;;;;;5043259;28;20201;-84
2022/01/24 12:01:54;;;;;;;17.03;12.10;;;4.40;91.70;;;;;;5049353;28;20236;-84
2022/01/24 12:04:49;;;;;;;18.37;13.10;;;4.30;91.80;;;;;;5057954;28;20193;-88
2022/01/24 12:07:18;;;;;;;18.40;12.93;;;4.40;92.00;;;;;;5054180;28;20244;-82
2022/01/24 12:09:48;;;;;;;17.37;12.60;;;4.70;91.60;;;;;;5063845;28;20198;-84
2022/01/24 12:12:45;;;;;;;21.20;12.97;;;4.80;90.90;;;;;;5054547;28;20749;-87
2022/01/24 12:15:51;;;;;;;20.20;13.47;;;4.70;90.90;;;;;;5057120;28;20194;-91
2022/01/24 12:18:23;;;;;;;21.23;13.00;;;4.70;91.00;;;;;;5035531;28;20240;-85
2022/01/24 12:20:52;;;;;;;19.93;13.53;;;4.80;90.70;;;;;;5041907;28;20226;-89
2022/01/24 12:23:48;;;;;;;19.37;13.13;;;4.80;90.80;;;;;;5035161;28;20213;-87
2022/01/24 12:26:25;;;;;;;18.63;13.10;;;4.70;91.10;;;;;;4994578;28;20222;-90
2022/01/24 12:28:57;;;;;;;19.57;13.00;;;4.80;91.00;;;;;;5045235;28;20655;-90
2022/01/24 12:31:29;;;;;;;19.23;13.63;;;4.70;91.10;;;;;;5035938;28;20256;-84
2022/01/24 12:34:08;;;;;;;18.60;13.20;;;4.70;91.50;;;;;;5034436;28;20831;-82
2022/01/24 12:37:01;;;;;;;17.37;12.17;;;4.70;91.70;;;;;;5044781;28;20229;-87
2022/01/24 12:39:36;;;;;;;22.17;14.10;;;4.80;91.10;;;;;;5048851;28;20197;-89
2022/01/24 12:42:12;;;;;;;22.33;13.80;;;4.90;91.20;;;;;;5045981;28;20241;-88
2022/01/24 12:47:29;;;;;;;18.93;12.27;;;5.00;90.30;;;;;;5054317;28;20229;-86
2022/01/24 12:49:57;;;;;;;20.37;13.13;;;4.80;90.70;;;;;;5055004;28;20685;-85
2022/01/24 12:52:26;;;;;;;20.47;13.97;;;4.90;90.60;;;;;;5052329;28;21015;-85
2022/01/24 12:54:56;;;;;;;25.40;15.43;;;4.70;90.50;;;;;;5054927;28;20218;-87
2022/01/24 12:57:29;;;;;;;22.33;15.20;;;4.50;91.60;;;;;;5054751;28;20222;-86
2022/01/24 13:00:01;;;;;;;21.90;13.93;;;4.40;92.20;;;;;;5055104;28;20194;-85
2022/01/24 13:02:31;;;;;;;22.80;14.23;;;4.30;92.40;;;;;;5055328;28;20236;-85
2022/01/24 13:05:06;;;;;;;23.73;14.60;;;4.30;92.20;;;;;;5056179;28;20643;-87
2022/01/24 13:07:33;;;;;;;22.60;14.23;;;4.20;93.10;;;;;;5050598;28;20251;-89
2022/01/24 13:10:13;;;;;;;22.17;15.03;;;4.30;93.20;;;;;;5055410;28;20201;-86
2022/01/24 13:12:41;;;;;;;22.50;14.93;;;4.30;92.90;;;;;;5047658;28;20226;-83
2022/01/24 13:15:21;;;;;;;23.00;15.23;;;4.30;93.00;;;;;;5043533;28;20197;-89
2022/01/24 13:21:07;;;;;;;23.53;16.03;;;4.10;93.20;;;;;;5051381;28;20283;-83
2022/01/24 13:23:34;;;;;;;24.03;16.13;;;4.10;93.40;;;;;;5049305;28;20201;-86
2022/01/24 13:26:05;;;;;;;29.03;18.10;;;4.10;93.30;;;;;;5052995;28;20308;-83
2022/01/24 13:28:32;;;;;;;27.80;16.87;;;4.00;93.40;;;;;;5048897;28;20213;-84
2022/01/24 13:31:01;;;;;;;24.57;16.70;;;3.90;93.70;;;;;;5047205;28;20289;-84
2022/01/24 13:33:32;;;;;;;28.10;17.57;;;3.90;94.20;;;;;;5048893;28;20256;-84
2022/01/24 13:36:04;;;;;;;30.50;17.97;;;3.80;94.30;;;;;;5054260;28;20245;-83
2022/01/24 13:38:33;;;;;;;30.37;18.00;;;3.60;94.80;;;;;;5061031;28;20217;-82
2022/01/24 13:41:04;;;;;;;31.00;18.23;;;3.60;94.80;;;;;;5056824;28;20230;-82
2022/01/24 13:43:37;;;;;;;27.60;17.77;;;3.60;95.40;;;;;;5052208;28;20566;-82
2022/01/24 13:46:06;;;;;;;33.93;18.93;;;3.60;95.10;;;;;;5050357;28;20717;-84
2022/01/24 13:48:44;;;;;;;26.03;17.70;;;3.60;95.60;;;;;;5057625;28;20218;-83
2022/01/24 13:51:15;;;;;;;27.13;17.63;;;3.50;95.40;;;;;;5042306;28;20240;-89
2022/01/24 13:53:44;;;;;;;23.43;15.63;;;3.60;95.40;;;;;;5040148;28;20203;-89
2022/01/24 13:56:33;;;;;;;23.03;15.37;;;3.70;94.80;;;;;;5040344;28;20236;-85
2022/01/24 13:59:06;;;;;;;26.87;16.80;;;3.70;94.80;;;;;;5047928;28;20236;-82
2022/01/24 14:01:33;;;;;;;23.77;15.97;;;3.60;94.80;;;;;;5052780;28;20225;-85
2022/01/24 14:04:03;;;;;;;23.97;16.63;;;3.60;94.80;;;;;;5043007;28;20194;-83
2022/01/24 14:06:33;;;;;;;30.03;17.63;;;3.30;95.40;;;;;;5042101;28;20253;-81
2022/01/24 14:09:06;;;;;;;24.67;16.53;;;3.40;95.00;;;;;;5048812;28;20197;-81
2022/01/24 14:11:33;;;;;;;24.87;16.93;;;3.50;94.80;;;;;;5047978;28;20221;-82